sensor_id;sensor_type;location;lat;lon;timestamp;P1;durP1;ratioP1;P2;durP2;ratioP2
80637;SDS011;69991;51.760;19.528;2023-12-29T00:01:32;17.90;;;7.80;;
80637;SDS011;69991;51.760;19.528;2023-12-29T00:04:01;13.30;;;6.70;;
80637;SDS011;69991;51.760;19.528;2023-12-29T00:06:30;15.80;;;8.00;;
80637;SDS011;69991;51.760;19.528;2023-12-29T00:08:59;15.30;;;7.10;;
80637;SDS011;69991;51.760;19.528;2023-12-29T00:11:29;13.10;;;7.50;;
80637;SDS011;69991;51.760;19.528;2023-12-29T00:13:58;12.00;;;6.50;;
80637;SDS011;69991;51.760;19.528;2023-12-29T00:16:27;13.30;;;6.80;;
80637;SDS011;69991;51.760;19.528;2023-12-29T00:18:56;15.50;;;7.00;;
80637;SDS011;69991;51.760;19.528;2023-12-29T00:21:25;16.00;;;7.30;;
80637;SDS011;69991;51.760;19.528;2023-12-29T00:23:54;16.20;;;7.40;;
80637;SDS011;69991;51.760;19.528;2023-12-29T00:26:24;13.70;;;6.60;;
80637;SDS011;69991;51.760;19.528;2023-12-29T00:28:53;12.30;;;6.10;;
80637;SDS011;69991;51.760;19.528;2023-12-29T00:31:23;13.10;;;7.50;;
80637;SDS011;69991;51.760;19.528;2023-12-29T00:33:52;15.10;;;7.70;;
80637;SDS011;69991;51.760;19.528;2023-12-29T00:36:22;15.50;;;7.10;;
80637;SDS011;69991;51.760;19.528;2023-12-29T00:38:51;14.40;;;6.70;;
80637;SDS011;69991;51.760;19.528;2023-12-29T00:41:20;12.90;;;6.80;;
80637;SDS011;69991;51.760;19.528;2023-12-29T00:43:48;12.60;;;6.80;;
80637;SDS011;69991;51.760;19.528;2023-12-29T00:46:18;13.70;;;6.70;;
80637;SDS011;69991;51.760;19.528;2023-12-29T00:48:47;16.20;;;7.60;;
80637;SDS011;69991;51.760;19.528;2023-12-29T00:51:16;13.20;;;6.70;;
80637;SDS011;69991;51.760;19.528;2023-12-29T00:53:45;14.60;;;6.40;;
80637;SDS011;69991;51.760;19.528;2023-12-29T00:56:14;13.00;;;6.80;;
80637;SDS011;69991;51.760;19.528;2023-12-29T00:58:43;12.40;;;6.40;;
80637;SDS011;69991;51.760;19.528;2023-12-29T01:01:12;13.00;;;6.70;;
80637;SDS011;69991;51.760;19.528;2023-12-29T01:03:41;11.60;;;5.60;;
80637;SDS011;69991;51.760;19.528;2023-12-29T01:06:10;16.50;;;8.30;;
80637;SDS011;69991;51.760;19.528;2023-12-29T01:08:39;17.50;;;8.10;;
80637;SDS011;69991;51.760;19.528;2023-12-29T01:11:08;15.50;;;7.90;;
80637;SDS011;69991;51.760;19.528;2023-12-29T01:13:38;14.70;;;7.30;;
80637;SDS011;69991;51.760;19.528;2023-12-29T01:16:07;13.50;;;7.60;;
80637;SDS011;69991;51.760;19.528;2023-12-29T01:18:36;14.50;;;7.50;;
80637;SDS011;69991;51.760;19.528;2023-12-29T01:21:05;12.20;;;6.90;;
80637;SDS011;69991;51.760;19.528;2023-12-29T01:23:35;13.40;;;6.40;;
80637;SDS011;69991;51.760;19.528;2023-12-29T01:26:04;14.00;;;6.70;;
80637;SDS011;69991;51.760;19.528;2023-12-29T01:28:33;11.40;;;5.60;;
80637;SDS011;69991;51.760;19.528;2023-12-29T01:31:02;10.80;;;5.90;;
80637;SDS011;69991;51.760;19.528;2023-12-29T01:33:31;10.90;;;5.50;;
80637;SDS011;69991;51.760;19.528;2023-12-29T01:36:00;12.60;;;6.00;;
80637;SDS011;69991;51.760;19.528;2023-12-29T01:38:42;13.10;;;7.30;;
80637;SDS011;69991;51.760;19.528;2023-12-29T01:41:11;15.00;;;7.50;;
80637;SDS011;69991;51.760;19.528;2023-12-29T01:46:29;13.10;;;6.80;;
80637;SDS011;69991;51.760;19.528;2023-12-29T01:48:58;15.80;;;6.40;;
80637;SDS011;69991;51.760;19.528;2023-12-29T01:51:28;14.70;;;7.00;;
80637;SDS011;69991;51.760;19.528;2023-12-29T01:53:57;12.60;;;6.50;;
80637;SDS011;69991;51.760;19.528;2023-12-29T01:56:26;13.70;;;6.90;;
80637;SDS011;69991;51.760;19.528;2023-12-29T01:58:55;11.40;;;6.10;;
80637;SDS011;69991;51.760;19.528;2023-12-29T02:01:38;16.30;;;6.40;;
80637;SDS011;69991;51.760;19.528;2023-12-29T02:04:11;14.20;;;6.30;;
80637;SDS011;69991;51.760;19.528;2023-12-29T02:06:41;11.00;;;5.40;;
80637;SDS011;69991;51.760;19.528;2023-12-29T02:09:11;14.10;;;6.60;;
80637;SDS011;69991;51.760;19.528;2023-12-29T02:11:41;13.40;;;6.70;;
80637;SDS011;69991;51.760;19.528;2023-12-29T02:14:09;14.40;;;7.10;;
80637;SDS011;69991;51.760;19.528;2023-12-29T02:17:15;13.80;;;6.90;;
80637;SDS011;69991;51.760;19.528;2023-12-29T02:19:41;14.60;;;6.70;;
80637;SDS011;69991;51.760;19.528;2023-12-29T02:22:13;12.30;;;6.10;;
80637;SDS011;69991;51.760;19.528;2023-12-29T02:24:46;12.50;;;6.40;;
80637;SDS011;69991;51.760;19.528;2023-12-29T02:29:48;11.10;;;5.50;;
80637;SDS011;69991;51.760;19.528;2023-12-29T02:32:25;12.00;;;5.60;;
80637;SDS011;69991;51.760;19.528;2023-12-29T02:34:56;12.70;;;6.30;;
80637;SDS011;69991;51.760;19.528;2023-12-29T02:37:26;12.00;;;5.60;;
80637;SDS011;69991;51.760;19.528;2023-12-29T02:39:56;13.40;;;7.10;;
80637;SDS011;69991;51.760;19.528;2023-12-29T02:42:27;15.50;;;7.90;;
80637;SDS011;69991;51.760;19.528;2023-12-29T02:44:56;14.10;;;7.50;;
80637;SDS011;69991;51.760;19.528;2023-12-29T02:47:25;14.20;;;6.90;;
80637;SDS011;69991;51.760;19.528;2023-12-29T02:49:54;14.30;;;7.00;;
80637;SDS011;69991;51.760;19.528;2023-12-29T02:52:23;13.00;;;6.70;;
80637;SDS011;69991;51.760;19.528;2023-12-29T02:54:53;13.10;;;7.40;;
80637;SDS011;69991;51.760;19.528;2023-12-29T02:57:22;12.70;;;6.60;;
80637;SDS011;69991;51.760;19.528;2023-12-29T02:59:52;12.90;;;6.90;;
80637;SDS011;69991;51.760;19.528;2023-12-29T03:02:21;13.10;;;6.50;;
80637;SDS011;69991;51.760;19.528;2023-12-29T03:04:50;14.20;;;6.50;;
80637;SDS011;69991;51.760;19.528;2023-12-29T03:07:19;13.50;;;6.60;;
80637;SDS011;69991;51.760;19.528;2023-12-29T03:09:49;14.90;;;7.60;;
80637;SDS011;69991;51.760;19.528;2023-12-29T03:12:17;16.40;;;7.80;;
80637;SDS011;69991;51.760;19.528;2023-12-29T03:14:46;15.90;;;7.80;;
80637;SDS011;69991;51.760;19.528;2023-12-29T03:17:16;16.00;;;7.30;;
80637;SDS011;69991;51.760;19.528;2023-12-29T03:19:45;14.60;;;7.60;;
80637;SDS011;69991;51.760;19.528;2023-12-29T03:22:14;15.90;;;7.60;;
80637;SDS011;69991;51.760;19.528;2023-12-29T03:24:43;15.40;;;7.60;;
80637;SDS011;69991;51.760;19.528;2023-12-29T03:27:12;14.20;;;7.70;;
80637;SDS011;69991;51.760;19.528;2023-12-29T03:29:41;13.50;;;7.30;;
80637;SDS011;69991;51.760;19.528;2023-12-29T03:32:11;14.50;;;7.10;;
80637;SDS011;69991;51.760;19.528;2023-12-29T03:34:40;15.60;;;7.30;;
80637;SDS011;69991;51.760;19.528;2023-12-29T03:37:09;13.60;;;7.60;;
80637;SDS011;69991;51.760;19.528;2023-12-29T03:39:38;17.30;;;8.50;;
80637;SDS011;69991;51.760;19.528;2023-12-29T03:42:07;17.10;;;7.90;;
80637;SDS011;69991;51.760;19.528;2023-12-29T03:44:36;16.60;;;8.30;;
80637;SDS011;69991;51.760;19.528;2023-12-29T03:47:05;15.30;;;8.10;;
80637;SDS011;69991;51.760;19.528;2023-12-29T03:49:34;15.40;;;8.20;;
80637;SDS011;69991;51.760;19.528;2023-12-29T03:52:03;13.70;;;7.30;;
80637;SDS011;69991;51.760;19.528;2023-12-29T03:54:32;11.60;;;6.10;;
80637;SDS011;69991;51.760;19.528;2023-12-29T03:57:01;14.60;;;6.80;;
80637;SDS011;69991;51.760;19.528;2023-12-29T03:59:31;15.80;;;8.30;;
80637;SDS011;69991;51.760;19.528;2023-12-29T04:02:00;11.30;;;5.50;;
80637;SDS011;69991;51.760;19.528;2023-12-29T04:04:29;16.80;;;8.60;;
80637;SDS011;69991;51.760;19.528;2023-12-29T04:06:58;18.50;;;9.10;;
80637;SDS011;69991;51.760;19.528;2023-12-29T04:09:27;16.00;;;8.30;;
80637;SDS011;69991;51.760;19.528;2023-12-29T04:11:56;15.50;;;8.00;;
80637;SDS011;69991;51.760;19.528;2023-12-29T04:14:25;14.10;;;7.50;;
80637;SDS011;69991;51.760;19.528;2023-12-29T04:16:53;14.00;;;6.80;;
80637;SDS011;69991;51.760;19.528;2023-12-29T04:19:22;13.30;;;7.50;;
80637;SDS011;69991;51.760;19.528;2023-12-29T04:21:52;14.50;;;7.70;;
80637;SDS011;69991;51.760;19.528;2023-12-29T04:24:21;16.50;;;7.60;;
80637;SDS011;69991;51.760;19.528;2023-12-29T04:26:50;12.80;;;7.00;;
80637;SDS011;69991;51.760;19.528;2023-12-29T04:29:19;13.80;;;7.30;;
80637;SDS011;69991;51.760;19.528;2023-12-29T04:31:48;15.50;;;8.00;;
80637;SDS011;69991;51.760;19.528;2023-12-29T04:34:16;13.20;;;7.30;;
80637;SDS011;69991;51.760;19.528;2023-12-29T04:36:45;15.80;;;8.20;;
80637;SDS011;69991;51.760;19.528;2023-12-29T04:39:14;13.60;;;8.00;;
80637;SDS011;69991;51.760;19.528;2023-12-29T04:41:43;14.00;;;7.20;;
80637;SDS011;69991;51.760;19.528;2023-12-29T04:44:13;14.00;;;6.70;;
80637;SDS011;69991;51.760;19.528;2023-12-29T04:46:42;13.20;;;6.70;;
80637;SDS011;69991;51.760;19.528;2023-12-29T04:49:11;13.20;;;6.80;;
80637;SDS011;69991;51.760;19.528;2023-12-29T04:51:40;10.60;;;6.00;;
80637;SDS011;69991;51.760;19.528;2023-12-29T04:54:09;13.30;;;7.10;;
80637;SDS011;69991;51.760;19.528;2023-12-29T04:56:38;12.20;;;7.00;;
80637;SDS011;69991;51.760;19.528;2023-12-29T04:59:07;11.90;;;6.60;;
80637;SDS011;69991;51.760;19.528;2023-12-29T05:01:36;14.30;;;6.80;;
80637;SDS011;69991;51.760;19.528;2023-12-29T05:04:05;11.80;;;5.70;;
80637;SDS011;69991;51.760;19.528;2023-12-29T05:06:34;12.10;;;5.90;;
80637;SDS011;69991;51.760;19.528;2023-12-29T05:09:03;10.80;;;5.50;;
80637;SDS011;69991;51.760;19.528;2023-12-29T05:11:32;12.00;;;5.70;;
80637;SDS011;69991;51.760;19.528;2023-12-29T05:14:01;12.20;;;5.40;;
80637;SDS011;69991;51.760;19.528;2023-12-29T05:16:30;10.90;;;5.80;;
80637;SDS011;69991;51.760;19.528;2023-12-29T05:18:59;10.10;;;4.90;;
80637;SDS011;69991;51.760;19.528;2023-12-29T05:21:28;15.20;;;7.50;;
80637;SDS011;69991;51.760;19.528;2023-12-29T05:23:57;12.60;;;6.80;;
80637;SDS011;69991;51.760;19.528;2023-12-29T05:26:26;13.40;;;6.60;;
80637;SDS011;69991;51.760;19.528;2023-12-29T05:28:55;12.70;;;6.80;;
80637;SDS011;69991;51.760;19.528;2023-12-29T05:31:24;12.60;;;6.50;;
80637;SDS011;69991;51.760;19.528;2023-12-29T05:33:53;11.00;;;6.40;;
80637;SDS011;69991;51.760;19.528;2023-12-29T05:36:23;12.40;;;6.00;;
80637;SDS011;69991;51.760;19.528;2023-12-29T05:41:21;12.10;;;5.70;;
80637;SDS011;69991;51.760;19.528;2023-12-29T05:43:50;10.90;;;5.70;;
80637;SDS011;69991;51.760;19.528;2023-12-29T05:46:19;14.20;;;7.40;;
80637;SDS011;69991;51.760;19.528;2023-12-29T05:48:48;13.50;;;6.70;;
80637;SDS011;69991;51.760;19.528;2023-12-29T05:51:17;11.50;;;6.30;;
80637;SDS011;69991;51.760;19.528;2023-12-29T05:53:46;12.90;;;6.50;;
80637;SDS011;69991;51.760;19.528;2023-12-29T05:56:15;13.30;;;6.10;;
80637;SDS011;69991;51.760;19.528;2023-12-29T05:58:44;11.20;;;5.50;;
80637;SDS011;69991;51.760;19.528;2023-12-29T06:01:13;12.70;;;6.20;;
80637;SDS011;69991;51.760;19.528;2023-12-29T06:03:42;11.90;;;5.80;;
80637;SDS011;69991;51.760;19.528;2023-12-29T06:06:11;10.20;;;5.20;;
80637;SDS011;69991;51.760;19.528;2023-12-29T06:08:40;12.70;;;6.70;;
80637;SDS011;69991;51.760;19.528;2023-12-29T06:11:14;12.60;;;6.40;;
80637;SDS011;69991;51.760;19.528;2023-12-29T06:13:43;11.50;;;6.10;;
80637;SDS011;69991;51.760;19.528;2023-12-29T06:16:19;9.50;;;5.00;;
80637;SDS011;69991;51.760;19.528;2023-12-29T06:18:48;9.90;;;5.50;;
80637;SDS011;69991;51.760;19.528;2023-12-29T06:21:18;11.40;;;5.70;;
80637;SDS011;69991;51.760;19.528;2023-12-29T06:23:48;11.00;;;5.50;;
80637;SDS011;69991;51.760;19.528;2023-12-29T06:26:17;12.30;;;5.60;;
80637;SDS011;69991;51.760;19.528;2023-12-29T06:28:47;10.00;;;5.30;;
80637;SDS011;69991;51.760;19.528;2023-12-29T06:31:16;9.40;;;4.50;;
80637;SDS011;69991;51.760;19.528;2023-12-29T06:33:46;8.50;;;4.50;;
80637;SDS011;69991;51.760;19.528;2023-12-29T06:36:15;10.70;;;5.20;;
80637;SDS011;69991;51.760;19.528;2023-12-29T06:38:44;10.20;;;5.00;;
80637;SDS011;69991;51.760;19.528;2023-12-29T06:41:17;10.10;;;4.80;;
80637;SDS011;69991;51.760;19.528;2023-12-29T06:43:47;9.70;;;5.10;;
80637;SDS011;69991;51.760;19.528;2023-12-29T06:46:16;9.20;;;4.50;;
80637;SDS011;69991;51.760;19.528;2023-12-29T06:48:46;11.70;;;5.30;;
80637;SDS011;69991;51.760;19.528;2023-12-29T06:51:17;10.00;;;4.60;;
80637;SDS011;69991;51.760;19.528;2023-12-29T06:53:47;8.60;;;4.70;;
80637;SDS011;69991;51.760;19.528;2023-12-29T06:56:16;10.60;;;4.90;;
80637;SDS011;69991;51.760;19.528;2023-12-29T06:58:47;11.20;;;5.60;;
80637;SDS011;69991;51.760;19.528;2023-12-29T07:01:16;10.20;;;5.10;;
80637;SDS011;69991;51.760;19.528;2023-12-29T07:03:45;9.00;;;4.20;;
80637;SDS011;69991;51.760;19.528;2023-12-29T07:06:14;10.70;;;5.10;;
80637;SDS011;69991;51.760;19.528;2023-12-29T07:08:43;10.20;;;5.40;;
80637;SDS011;69991;51.760;19.528;2023-12-29T07:11:12;12.40;;;6.50;;
80637;SDS011;69991;51.760;19.528;2023-12-29T07:13:41;9.00;;;4.70;;
80637;SDS011;69991;51.760;19.528;2023-12-29T07:16:10;9.00;;;4.40;;
80637;SDS011;69991;51.760;19.528;2023-12-29T07:18:39;9.60;;;4.20;;
80637;SDS011;69991;51.760;19.528;2023-12-29T07:21:08;10.10;;;4.50;;
80637;SDS011;69991;51.760;19.528;2023-12-29T07:23:38;10.30;;;4.70;;
80637;SDS011;69991;51.760;19.528;2023-12-29T07:26:07;9.20;;;4.40;;
80637;SDS011;69991;51.760;19.528;2023-12-29T07:28:36;9.20;;;4.30;;
80637;SDS011;69991;51.760;19.528;2023-12-29T07:31:05;6.50;;;2.90;;
80637;SDS011;69991;51.760;19.528;2023-12-29T07:33:34;8.90;;;4.30;;
80637;SDS011;69991;51.760;19.528;2023-12-29T07:36:04;10.00;;;5.00;;
80637;SDS011;69991;51.760;19.528;2023-12-29T07:38:33;9.90;;;4.70;;
80637;SDS011;69991;51.760;19.528;2023-12-29T07:41:02;10.30;;;5.40;;
80637;SDS011;69991;51.760;19.528;2023-12-29T07:43:31;8.70;;;4.10;;
80637;SDS011;69991;51.760;19.528;2023-12-29T07:46:00;9.30;;;4.70;;
80637;SDS011;69991;51.760;19.528;2023-12-29T07:48:30;8.30;;;4.50;;
80637;SDS011;69991;51.760;19.528;2023-12-29T07:51:03;8.40;;;4.50;;
80637;SDS011;69991;51.760;19.528;2023-12-29T07:53:33;9.40;;;5.10;;
80637;SDS011;69991;51.760;19.528;2023-12-29T07:56:02;10.20;;;5.20;;
80637;SDS011;69991;51.760;19.528;2023-12-29T07:58:31;9.90;;;4.40;;
80637;SDS011;69991;51.760;19.528;2023-12-29T08:01:00;9.50;;;4.50;;
80637;SDS011;69991;51.760;19.528;2023-12-29T08:03:29;8.30;;;4.10;;
80637;SDS011;69991;51.760;19.528;2023-12-29T08:05:58;12.50;;;5.50;;
80637;SDS011;69991;51.760;19.528;2023-12-29T08:08:27;11.20;;;5.70;;
80637;SDS011;69991;51.760;19.528;2023-12-29T08:10:56;11.50;;;5.50;;
80637;SDS011;69991;51.760;19.528;2023-12-29T08:13:25;9.70;;;5.20;;
80637;SDS011;69991;51.760;19.528;2023-12-29T08:15:54;10.50;;;4.90;;
80637;SDS011;69991;51.760;19.528;2023-12-29T08:18:23;9.70;;;4.30;;
80637;SDS011;69991;51.760;19.528;2023-12-29T08:20:52;8.30;;;3.90;;
80637;SDS011;69991;51.760;19.528;2023-12-29T08:23:21;8.70;;;4.70;;
80637;SDS011;69991;51.760;19.528;2023-12-29T08:25:50;10.30;;;4.50;;
80637;SDS011;69991;51.760;19.528;2023-12-29T08:28:25;8.50;;;4.00;;
80637;SDS011;69991;51.760;19.528;2023-12-29T08:30:55;9.60;;;4.60;;
80637;SDS011;69991;51.760;19.528;2023-12-29T08:33:25;11.10;;;5.30;;
80637;SDS011;69991;51.760;19.528;2023-12-29T08:35:54;11.20;;;5.40;;
80637;SDS011;69991;51.760;19.528;2023-12-29T08:38:29;11.90;;;5.10;;
80637;SDS011;69991;51.760;19.528;2023-12-29T08:41:00;9.30;;;5.10;;
80637;SDS011;69991;51.760;19.528;2023-12-29T08:43:29;10.10;;;4.80;;
80637;SDS011;69991;51.760;19.528;2023-12-29T08:45:57;8.20;;;4.30;;
80637;SDS011;69991;51.760;19.528;2023-12-29T08:48:26;8.70;;;4.30;;
80637;SDS011;69991;51.760;19.528;2023-12-29T08:50:55;9.70;;;4.50;;
80637;SDS011;69991;51.760;19.528;2023-12-29T08:53:25;9.80;;;4.70;;
80637;SDS011;69991;51.760;19.528;2023-12-29T08:55:54;10.00;;;4.30;;
80637;SDS011;69991;51.760;19.528;2023-12-29T08:58:23;8.60;;;4.90;;
80637;SDS011;69991;51.760;19.528;2023-12-29T09:00:52;9.30;;;4.90;;
80637;SDS011;69991;51.760;19.528;2023-12-29T09:03:21;9.90;;;4.70;;
80637;SDS011;69991;51.760;19.528;2023-12-29T09:05:50;10.90;;;4.90;;
80637;SDS011;69991;51.760;19.528;2023-12-29T09:08:19;8.50;;;4.40;;
80637;SDS011;69991;51.760;19.528;2023-12-29T09:10:48;8.20;;;4.30;;
80637;SDS011;69991;51.760;19.528;2023-12-29T09:13:17;9.10;;;5.00;;
80637;SDS011;69991;51.760;19.528;2023-12-29T09:15:47;10.50;;;5.50;;
80637;SDS011;69991;51.760;19.528;2023-12-29T09:18:16;9.90;;;5.20;;
80637;SDS011;69991;51.760;19.528;2023-12-29T09:20:45;11.10;;;4.70;;
80637;SDS011;69991;51.760;19.528;2023-12-29T09:23:15;15.70;;;7.40;;
80637;SDS011;69991;51.760;19.528;2023-12-29T09:25:44;12.90;;;6.40;;
80637;SDS011;69991;51.760;19.528;2023-12-29T09:28:13;11.80;;;6.10;;
80637;SDS011;69991;51.760;19.528;2023-12-29T09:30:42;9.60;;;5.60;;
80637;SDS011;69991;51.760;19.528;2023-12-29T09:33:11;11.40;;;5.80;;
80637;SDS011;69991;51.760;19.528;2023-12-29T09:35:41;12.50;;;6.00;;
80637;SDS011;69991;51.760;19.528;2023-12-29T09:38:10;11.30;;;5.70;;
80637;SDS011;69991;51.760;19.528;2023-12-29T09:40:39;13.00;;;5.80;;
80637;SDS011;69991;51.760;19.528;2023-12-29T09:43:08;11.10;;;6.30;;
80637;SDS011;69991;51.760;19.528;2023-12-29T09:45:37;9.70;;;5.00;;
80637;SDS011;69991;51.760;19.528;2023-12-29T09:48:07;11.10;;;5.10;;
80637;SDS011;69991;51.760;19.528;2023-12-29T09:50:38;10.70;;;4.80;;
80637;SDS011;69991;51.760;19.528;2023-12-29T09:53:08;9.70;;;5.20;;
80637;SDS011;69991;51.760;19.528;2023-12-29T09:55:39;9.50;;;5.00;;
80637;SDS011;69991;51.760;19.528;2023-12-29T09:58:09;8.90;;;4.60;;
80637;SDS011;69991;51.760;19.528;2023-12-29T10:00:39;7.90;;;3.70;;
80637;SDS011;69991;51.760;19.528;2023-12-29T10:03:08;9.40;;;4.30;;
80637;SDS011;69991;51.760;19.528;2023-12-29T10:05:38;6.80;;;3.50;;
80637;SDS011;69991;51.760;19.528;2023-12-29T10:08:07;7.60;;;3.90;;
80637;SDS011;69991;51.760;19.528;2023-12-29T10:10:38;8.90;;;4.40;;
80637;SDS011;69991;51.760;19.528;2023-12-29T10:13:09;8.40;;;4.30;;
80637;SDS011;69991;51.760;19.528;2023-12-29T10:15:53;6.30;;;3.40;;
80637;SDS011;69991;51.760;19.528;2023-12-29T10:21:08;7.90;;;3.60;;
80637;SDS011;69991;51.760;19.528;2023-12-29T10:24:30;6.50;;;3.00;;
80637;SDS011;69991;51.760;19.528;2023-12-29T10:26:46;5.10;;;2.50;;
80637;SDS011;69991;51.760;19.528;2023-12-29T10:29:16;7.00;;;3.40;;
80637;SDS011;69991;51.760;19.528;2023-12-29T10:31:47;6.00;;;3.10;;
80637;SDS011;69991;51.760;19.528;2023-12-29T10:34:17;7.60;;;3.60;;
80637;SDS011;69991;51.760;19.528;2023-12-29T10:36:49;6.90;;;3.50;;
80637;SDS011;69991;51.760;19.528;2023-12-29T10:39:19;7.40;;;3.90;;
80637;SDS011;69991;51.760;19.528;2023-12-29T10:41:47;6.80;;;3.10;;
80637;SDS011;69991;51.760;19.528;2023-12-29T10:44:16;8.60;;;3.50;;
80637;SDS011;69991;51.760;19.528;2023-12-29T10:46:46;7.80;;;3.50;;
80637;SDS011;69991;51.760;19.528;2023-12-29T10:49:15;9.00;;;3.80;;
80637;SDS011;69991;51.760;19.528;2023-12-29T10:51:47;7.00;;;3.50;;
80637;SDS011;69991;51.760;19.528;2023-12-29T10:54:19;6.00;;;3.10;;
80637;SDS011;69991;51.760;19.528;2023-12-29T10:57:01;7.10;;;3.10;;
80637;SDS011;69991;51.760;19.528;2023-12-29T10:59:31;7.30;;;3.30;;
80637;SDS011;69991;51.760;19.528;2023-12-29T11:02:03;7.50;;;3.50;;
80637;SDS011;69991;51.760;19.528;2023-12-29T11:04:35;6.40;;;2.90;;
80637;SDS011;69991;51.760;19.528;2023-12-29T11:07:04;8.70;;;3.10;;
80637;SDS011;69991;51.760;19.528;2023-12-29T11:09:33;6.70;;;3.40;;
80637;SDS011;69991;51.760;19.528;2023-12-29T11:12:03;7.20;;;3.20;;
80637;SDS011;69991;51.760;19.528;2023-12-29T11:14:34;7.40;;;3.20;;
80637;SDS011;69991;51.760;19.528;2023-12-29T11:17:03;6.80;;;3.40;;
80637;SDS011;69991;51.760;19.528;2023-12-29T11:19:33;7.00;;;3.60;;
80637;SDS011;69991;51.760;19.528;2023-12-29T11:22:02;5.80;;;2.80;;
80637;SDS011;69991;51.760;19.528;2023-12-29T11:24:32;6.10;;;2.60;;
80637;SDS011;69991;51.760;19.528;2023-12-29T11:27:09;5.80;;;2.50;;
80637;SDS011;69991;51.760;19.528;2023-12-29T11:29:40;6.40;;;3.10;;
80637;SDS011;69991;51.760;19.528;2023-12-29T11:32:18;6.50;;;3.10;;
80637;SDS011;69991;51.760;19.528;2023-12-29T11:34:52;7.40;;;3.30;;
80637;SDS011;69991;51.760;19.528;2023-12-29T11:40:26;6.10;;;3.40;;
80637;SDS011;69991;51.760;19.528;2023-12-29T11:43:00;6.20;;;3.20;;
80637;SDS011;69991;51.760;19.528;2023-12-29T11:45:33;7.20;;;3.40;;
80637;SDS011;69991;51.760;19.528;2023-12-29T11:48:06;6.00;;;3.10;;
80637;SDS011;69991;51.760;19.528;2023-12-29T11:50:36;6.60;;;3.10;;
80637;SDS011;69991;51.760;19.528;2023-12-29T11:55:38;5.40;;;2.50;;
80637;SDS011;69991;51.760;19.528;2023-12-29T11:58:24;6.80;;;3.00;;
80637;SDS011;69991;51.760;19.528;2023-12-29T12:00:55;6.80;;;3.10;;
80637;SDS011;69991;51.760;19.528;2023-12-29T12:03:26;7.80;;;2.90;;
80637;SDS011;69991;51.760;19.528;2023-12-29T12:05:56;7.10;;;3.40;;
80637;SDS011;69991;51.760;19.528;2023-12-29T12:08:28;5.40;;;2.90;;
80637;SDS011;69991;51.760;19.528;2023-12-29T12:13:58;5.30;;;2.50;;
80637;SDS011;69991;51.760;19.528;2023-12-29T12:19:19;4.80;;;2.40;;
80637;SDS011;69991;51.760;19.528;2023-12-29T12:21:53;4.30;;;1.80;;
80637;SDS011;69991;51.760;19.528;2023-12-29T12:24:24;7.60;;;3.00;;
80637;SDS011;69991;51.760;19.528;2023-12-29T12:26:55;5.10;;;2.30;;
80637;SDS011;69991;51.760;19.528;2023-12-29T12:29:24;5.20;;;2.00;;
80637;SDS011;69991;51.760;19.528;2023-12-29T12:31:57;4.40;;;2.00;;
80637;SDS011;69991;51.760;19.528;2023-12-29T12:34:26;3.90;;;1.70;;
80637;SDS011;69991;51.760;19.528;2023-12-29T12:37:05;5.10;;;2.10;;
80637;SDS011;69991;51.760;19.528;2023-12-29T12:39:39;4.10;;;1.90;;
80637;SDS011;69991;51.760;19.528;2023-12-29T12:42:09;4.80;;;2.00;;
80637;SDS011;69991;51.760;19.528;2023-12-29T12:44:38;5.20;;;2.10;;
80637;SDS011;69991;51.760;19.528;2023-12-29T12:47:10;4.50;;;2.10;;
80637;SDS011;69991;51.760;19.528;2023-12-29T12:49:47;5.80;;;1.80;;
80637;SDS011;69991;51.760;19.528;2023-12-29T12:52:16;5.10;;;2.40;;
80637;SDS011;69991;51.760;19.528;2023-12-29T12:54:46;7.00;;;2.50;;
80637;SDS011;69991;51.760;19.528;2023-12-29T12:57:19;5.00;;;1.80;;
80637;SDS011;69991;51.760;19.528;2023-12-29T12:59:49;4.50;;;1.60;;
80637;SDS011;69991;51.760;19.528;2023-12-29T13:02:19;6.00;;;2.30;;
80637;SDS011;69991;51.760;19.528;2023-12-29T13:04:50;6.50;;;2.60;;
80637;SDS011;69991;51.760;19.528;2023-12-29T13:07:20;7.20;;;3.00;;
80637;SDS011;69991;51.760;19.528;2023-12-29T13:09:49;5.30;;;2.20;;
80637;SDS011;69991;51.760;19.528;2023-12-29T13:12:20;5.90;;;2.20;;
80637;SDS011;69991;51.760;19.528;2023-12-29T13:14:49;5.70;;;2.30;;
80637;SDS011;69991;51.760;19.528;2023-12-29T13:17:20;5.70;;;2.40;;
80637;SDS011;69991;51.760;19.528;2023-12-29T13:19:58;5.60;;;2.80;;
80637;SDS011;69991;51.760;19.528;2023-12-29T13:22:31;6.00;;;2.40;;
80637;SDS011;69991;51.760;19.528;2023-12-29T13:25:00;6.30;;;2.70;;
80637;SDS011;69991;51.760;19.528;2023-12-29T13:27:36;5.30;;;2.60;;
80637;SDS011;69991;51.760;19.528;2023-12-29T13:30:06;6.80;;;2.50;;
80637;SDS011;69991;51.760;19.528;2023-12-29T13:32:36;6.10;;;2.90;;
80637;SDS011;69991;51.760;19.528;2023-12-29T13:35:24;4.00;;;1.50;;
80637;SDS011;69991;51.760;19.528;2023-12-29T13:38:10;5.90;;;3.10;;
80637;SDS011;69991;51.760;19.528;2023-12-29T13:43:20;6.90;;;2.80;;
80637;SDS011;69991;51.760;19.528;2023-12-29T13:45:50;4.90;;;2.60;;
80637;SDS011;69991;51.760;19.528;2023-12-29T13:48:20;6.60;;;3.10;;
80637;SDS011;69991;51.760;19.528;2023-12-29T13:50:50;6.80;;;2.50;;
80637;SDS011;69991;51.760;19.528;2023-12-29T13:53:20;6.30;;;1.80;;
80637;SDS011;69991;51.760;19.528;2023-12-29T13:55:49;6.60;;;3.10;;
80637;SDS011;69991;51.760;19.528;2023-12-29T13:58:18;6.50;;;2.90;;
80637;SDS011;69991;51.760;19.528;2023-12-29T14:00:53;8.40;;;4.30;;
80637;SDS011;69991;51.760;19.528;2023-12-29T14:03:31;6.30;;;3.10;;
80637;SDS011;69991;51.760;19.528;2023-12-29T14:06:12;5.90;;;3.10;;
80637;SDS011;69991;51.760;19.528;2023-12-29T14:08:47;6.40;;;3.10;;
80637;SDS011;69991;51.760;19.528;2023-12-29T14:11:16;6.60;;;3.40;;
80637;SDS011;69991;51.760;19.528;2023-12-29T14:13:45;8.50;;;3.20;;
80637;SDS011;69991;51.760;19.528;2023-12-29T14:16:16;8.10;;;3.80;;
80637;SDS011;69991;51.760;19.528;2023-12-29T14:18:53;8.50;;;3.80;;
80637;SDS011;69991;51.760;19.528;2023-12-29T14:21:28;8.20;;;3.70;;
80637;SDS011;69991;51.760;19.528;2023-12-29T14:24:14;7.20;;;3.60;;
80637;SDS011;69991;51.760;19.528;2023-12-29T14:29:20;14.00;;;6.30;;
80637;SDS011;69991;51.760;19.528;2023-12-29T14:31:49;6.70;;;4.00;;
80637;SDS011;69991;51.760;19.528;2023-12-29T14:34:21;6.40;;;3.40;;
80637;SDS011;69991;51.760;19.528;2023-12-29T14:36:51;7.70;;;3.50;;
80637;SDS011;69991;51.760;19.528;2023-12-29T14:39:20;7.50;;;3.10;;
80637;SDS011;69991;51.760;19.528;2023-12-29T14:41:49;9.30;;;4.60;;
80637;SDS011;69991;51.760;19.528;2023-12-29T14:44:18;9.50;;;4.10;;
80637;SDS011;69991;51.760;19.528;2023-12-29T14:46:47;6.60;;;3.30;;
80637;SDS011;69991;51.760;19.528;2023-12-29T14:49:16;8.50;;;4.40;;
80637;SDS011;69991;51.760;19.528;2023-12-29T14:51:45;8.10;;;4.20;;
80637;SDS011;69991;51.760;19.528;2023-12-29T14:54:14;10.20;;;4.40;;
80637;SDS011;69991;51.760;19.528;2023-12-29T14:56:43;9.80;;;4.60;;
80637;SDS011;69991;51.760;19.528;2023-12-29T14:59:13;10.60;;;5.20;;
80637;SDS011;69991;51.760;19.528;2023-12-29T15:01:42;8.30;;;4.60;;
80637;SDS011;69991;51.760;19.528;2023-12-29T15:04:11;8.90;;;4.20;;
80637;SDS011;69991;51.760;19.528;2023-12-29T15:06:42;9.50;;;4.40;;
80637;SDS011;69991;51.760;19.528;2023-12-29T15:09:12;9.60;;;4.30;;
80637;SDS011;69991;51.760;19.528;2023-12-29T15:11:43;11.10;;;5.40;;
80637;SDS011;69991;51.760;19.528;2023-12-29T15:14:12;10.40;;;4.80;;